createdAt,value
2023-05-19T00:01:08.330Z,0.30
2023-05-19T00:03:40.403Z,0.40
2023-05-19T00:06:09.957Z,0.50
2023-05-19T00:08:39.644Z,0.40
2023-05-19T00:11:10.331Z,0.50
2023-05-19T00:13:39.845Z,0.40
2023-05-19T00:16:09.443Z,0.40
2023-05-19T00:18:37.538Z,0.40
2023-05-19T00:21:05.790Z,0.50
2023-05-19T00:23:34.026Z,0.40
2023-05-19T00:26:02.010Z,0.40
2023-05-19T00:28:31.340Z,0.33
2023-05-19T00:31:01.684Z,0.40
2023-05-19T00:33:29.627Z,0.40
2023-05-19T00:35:57.731Z,0.40
2023-05-19T00:38:25.867Z,0.40
2023-05-19T00:40:54.300Z,0.40
2023-05-19T00:43:22.325Z,0.40
2023-05-19T00:45:54.137Z,0.30
2023-05-19T00:48:22.526Z,0.33
2023-05-19T00:50:51.402Z,0.40
2023-05-19T00:53:20.010Z,0.40
2023-05-19T00:55:49.234Z,0.30
2023-05-19T00:58:19.586Z,0.40
2023-05-19T01:00:50.757Z,0.30
2023-05-19T01:03:20.618Z,0.30
2023-05-19T01:05:51.146Z,0.40
2023-05-19T01:08:19.325Z,0.37
2023-05-19T01:10:47.437Z,0.40
2023-05-19T01:13:15.706Z,0.30
2023-05-19T01:16:02.612Z,0.47
2023-05-19T01:18:46.352Z,0.40
2023-05-19T01:21:44.507Z,0.30
2023-05-19T01:24:33.339Z,0.40
2023-05-19T01:27:32.570Z,0.33
2023-05-19T01:30:31.499Z,0.30
2023-05-19T01:33:02.637Z,0.40
2023-05-19T01:35:32.982Z,0.30
2023-05-19T01:38:02.716Z,0.30
2023-05-19T01:40:32.054Z,0.30
2023-05-19T01:43:01.904Z,0.40
2023-05-19T01:45:33.170Z,0.40
2023-05-19T01:48:03.533Z,0.40
2023-05-19T01:50:32.927Z,0.40
2023-05-19T01:53:01.961Z,0.40
2023-05-19T01:55:30.467Z,0.50
2023-05-19T01:58:08.234Z,0.40
2023-05-19T02:00:53.212Z,0.40
2023-05-19T02:03:34.132Z,0.30
2023-05-19T02:06:12.244Z,0.33
2023-05-19T02:08:45.346Z,0.30
2023-05-19T02:11:18.374Z,0.30
2023-05-19T02:13:51.439Z,0.40
2023-05-19T02:16:23.197Z,0.30
2023-05-19T02:18:54.485Z,0.30
2023-05-19T02:21:22.719Z,0.33
2023-05-19T02:23:51.909Z,0.33
2023-05-19T02:26:19.932Z,0.30
2023-05-19T02:28:48.040Z,0.30
2023-05-19T02:31:16.376Z,0.40
2023-05-19T02:33:45.762Z,0.40
2023-05-19T02:36:14.565Z,0.40
2023-05-19T02:38:42.828Z,0.40
2023-05-19T02:41:10.805Z,0.40
2023-05-19T02:43:38.953Z,0.30
2023-05-19T02:46:07.236Z,0.40
2023-05-19T02:48:37.694Z,0.33
2023-05-19T02:51:09.608Z,0.50
2023-05-19T02:53:37.742Z,0.40
2023-05-19T02:56:06.137Z,0.30
2023-05-19T02:58:34.080Z,0.40
2023-05-19T03:01:02.628Z,0.40
2023-05-19T03:03:30.711Z,0.43
2023-05-19T03:06:00.279Z,0.40
2023-05-19T03:08:29.894Z,0.50
2023-05-19T03:10:57.849Z,0.40
2023-05-19T03:13:25.919Z,0.40
2023-05-19T03:15:53.925Z,0.40
2023-05-19T03:18:24.656Z,0.40
2023-05-19T03:20:53.905Z,0.40
2023-05-19T03:23:22.878Z,0.40
2023-05-19T03:25:54.321Z,0.47
2023-05-19T03:28:24.417Z,0.40
2023-05-19T03:30:54.663Z,0.40
2023-05-19T03:33:24.547Z,0.40
2023-05-19T03:35:53.107Z,0.40
2023-05-19T03:38:21.014Z,0.50
2023-05-19T03:40:49.039Z,0.40
2023-05-19T03:43:18.352Z,0.40
2023-05-19T03:45:46.371Z,0.40
2023-05-19T03:48:15.924Z,0.43
2023-05-19T03:50:44.587Z,0.40
2023-05-19T03:53:13.594Z,0.40
2023-05-19T03:55:41.715Z,0.40
2023-05-19T03:58:10.667Z,0.40
2023-05-19T04:00:40.096Z,0.47
2023-05-19T04:03:08.920Z,0.40
2023-05-19T04:05:37.001Z,0.40
2023-05-19T04:08:05.081Z,0.40
2023-05-19T04:10:33.304Z,0.40
2023-05-19T04:13:01.901Z,0.30
2023-05-19T04:15:30.204Z,0.30
2023-05-19T04:18:04.851Z,0.30
2023-05-19T04:20:33.969Z,0.40
2023-05-19T04:23:02.137Z,0.37
2023-05-19T04:25:30.191Z,0.30
2023-05-19T04:27:58.921Z,0.40
2023-05-19T04:30:27.040Z,0.40
2023-05-19T04:32:55.125Z,0.40
2023-05-19T04:35:24.754Z,0.33
2023-05-19T04:37:54.384Z,0.40
2023-05-19T04:40:23.928Z,0.47
2023-05-19T04:42:54.778Z,0.40
2023-05-19T04:45:23.296Z,0.40
2023-05-19T04:47:52.746Z,0.40
2023-05-19T04:50:20.650Z,0.30
2023-05-19T04:52:50.196Z,0.20
2023-05-19T04:55:19.672Z,0.30
2023-05-19T04:57:52.545Z,0.30
2023-05-19T05:00:29.655Z,0.20
2023-05-19T05:02:58.791Z,0.30
2023-05-19T05:05:27.142Z,0.30
2023-05-19T05:08:04.631Z,0.30
2023-05-19T05:10:34.885Z,0.20
2023-05-19T05:13:16.694Z,0.40
2023-05-19T05:15:47.021Z,0.30
2023-05-19T05:18:16.192Z,0.30
2023-05-19T05:20:48.403Z,0.23
2023-05-19T05:23:18.609Z,0.20
2023-05-19T05:25:48.928Z,0.20
2023-05-19T05:28:17.196Z,0.30
2023-05-19T05:30:47.236Z,0.27
2023-05-19T05:33:17.831Z,0.27
2023-05-19T05:35:47.019Z,0.30
2023-05-19T05:38:15.193Z,0.27
2023-05-19T05:40:44.810Z,0.30
2023-05-19T05:43:13.393Z,0.30
2023-05-19T05:45:44.282Z,0.30
2023-05-19T05:48:13.108Z,0.20
2023-05-19T05:50:42.306Z,0.37
2023-05-19T05:53:11.184Z,0.37
2023-05-19T05:55:40.223Z,0.20
2023-05-19T05:58:11.225Z,0.20
2023-05-19T06:00:40.366Z,0.20
2023-05-19T06:03:10.032Z,0.20
2023-05-19T06:05:40.425Z,0.20
2023-05-19T06:08:10.371Z,0.20
2023-05-19T06:10:41.969Z,0.20
2023-05-19T06:13:11.537Z,0.20
2023-05-19T06:15:39.520Z,0.20
2023-05-19T06:18:07.844Z,0.20
2023-05-19T06:20:35.987Z,0.23
2023-05-19T06:23:04.283Z,0.27
2023-05-19T06:25:32.677Z,0.20
2023-05-19T06:28:01.005Z,0.20
2023-05-19T06:30:30.422Z,0.20
2023-05-19T06:32:58.498Z,0.20
2023-05-19T06:35:26.818Z,0.20
2023-05-19T06:37:55.804Z,0.20
2023-05-19T06:40:25.784Z,0.20
2023-05-19T06:42:53.827Z,0.30
2023-05-19T06:45:22.743Z,0.20
2023-05-19T06:47:52.187Z,0.20
2023-05-19T06:50:20.244Z,0.30
2023-05-19T06:52:49.366Z,0.20
2023-05-19T06:55:17.684Z,0.20
2023-05-19T06:57:45.777Z,0.20
2023-05-19T07:00:17.605Z,0.20
2023-05-19T07:02:46.565Z,0.20
2023-05-19T07:05:16.396Z,0.20
2023-05-19T07:07:45.048Z,0.20
2023-05-19T07:10:14.276Z,0.20
2023-05-19T07:12:45.160Z,0.20
2023-05-19T07:15:13.279Z,0.20
2023-05-19T07:17:43.803Z,0.20
2023-05-19T07:20:12.602Z,0.20
2023-05-19T07:22:41.958Z,0.20
2023-05-19T07:25:10.769Z,0.20
2023-05-19T07:27:39.797Z,0.20
2023-05-19T07:30:09.452Z,0.20
2023-05-19T07:32:37.881Z,0.20
2023-05-19T07:35:07.455Z,0.20
2023-05-19T07:37:36.063Z,0.20
2023-05-19T07:40:06.596Z,0.20
2023-05-19T07:42:34.924Z,0.20
2023-05-19T07:45:03.378Z,0.20
2023-05-19T07:47:31.609Z,0.20
2023-05-19T07:49:59.736Z,0.20
2023-05-19T07:52:27.846Z,0.20
2023-05-19T07:54:56.173Z,0.20
2023-05-19T07:57:27.895Z,0.20
2023-05-19T07:59:56.602Z,0.20
2023-05-19T08:02:24.718Z,0.20
2023-05-19T08:04:56.526Z,0.20
2023-05-19T08:07:24.714Z,0.20
2023-05-19T08:09:53.021Z,0.20
2023-05-19T08:12:20.986Z,0.20
2023-05-19T08:14:52.859Z,0.20
2023-05-19T08:17:20.732Z,0.20
2023-05-19T08:19:48.859Z,0.20
2023-05-19T08:22:16.960Z,0.20
2023-05-19T08:24:45.169Z,0.20
2023-05-19T08:27:14.754Z,0.20
2023-05-19T08:29:42.928Z,0.20
2023-05-19T08:32:13.389Z,0.20
2023-05-19T08:34:42.288Z,0.20
2023-05-19T08:37:13.261Z,0.20
2023-05-19T08:39:41.465Z,0.20
2023-05-19T08:42:10.414Z,0.20
2023-05-19T08:44:42.513Z,0.20
2023-05-19T08:47:13.995Z,0.20
2023-05-19T08:49:46.279Z,0.20
2023-05-19T08:52:32.929Z,0.20
2023-05-19T08:55:06.853Z,0.20
2023-05-19T08:57:38.354Z,0.20
2023-05-19T09:00:09.610Z,0.20
2023-05-19T09:02:50.486Z,0.20
2023-05-19T09:05:29.365Z,0.20
2023-05-19T09:07:57.746Z,0.20
2023-05-19T09:10:27.095Z,0.20
2023-05-19T09:12:56.942Z,0.20
2023-05-19T09:15:28.077Z,0.20
2023-05-19T09:18:08.948Z,0.20
2023-05-19T09:20:41.654Z,0.20
2023-05-19T09:23:14.961Z,0.20
2023-05-19T09:25:53.289Z,0.20
2023-05-19T09:28:26.331Z,0.20
2023-05-19T09:31:01.687Z,0.20
2023-05-19T09:33:31.709Z,0.20
2023-05-19T09:36:00.299Z,0.20
2023-05-19T09:38:29.469Z,0.20
2023-05-19T09:41:03.707Z,0.20
2023-05-19T09:43:35.546Z,0.20
2023-05-19T09:46:15.780Z,0.20
2023-05-19T09:48:45.113Z,0.20
2023-05-19T09:51:22.091Z,0.20
2023-05-19T09:54:10.150Z,0.20
2023-05-19T09:57:23.581Z,0.20
2023-05-19T09:59:57.509Z,0.20
2023-05-19T10:02:38.472Z,0.20
2023-05-19T10:05:20.187Z,0.20
2023-05-19T10:07:52.298Z,0.20
2023-05-19T10:10:21.177Z,0.20
2023-05-19T10:12:50.325Z,0.20
2023-05-19T10:15:23.437Z,0.20
2023-05-19T10:17:53.413Z,0.20
2023-05-19T10:20:25.678Z,0.20
2023-05-19T10:22:54.052Z,0.20
2023-05-19T10:25:22.314Z,0.20
2023-05-19T10:27:55.155Z,0.20
2023-05-19T10:30:28.526Z,0.20
2023-05-19T10:32:58.556Z,0.20
2023-05-19T10:36:14.088Z,0.20
2023-05-19T10:38:49.430Z,0.20
2023-05-19T10:41:28.653Z,0.20
2023-05-19T10:44:10.995Z,0.20
2023-05-19T10:46:47.620Z,0.20
2023-05-19T10:49:27.799Z,0.20
2023-05-19T10:52:01.103Z,0.20
2023-05-19T10:54:48.222Z,0.20
2023-05-19T10:57:17.815Z,0.20
2023-05-19T11:00:09.176Z,0.20
2023-05-19T11:02:49.744Z,0.20
2023-05-19T11:05:23.372Z,0.20
2023-05-19T11:08:03.253Z,0.20
2023-05-19T11:10:31.833Z,0.20
2023-05-19T11:13:00.218Z,0.20
2023-05-19T11:15:30.801Z,0.20
2023-05-19T11:18:02.217Z,0.20
2023-05-19T11:20:32.050Z,0.20
2023-05-19T11:23:08.723Z,0.20
2023-05-19T11:25:45.032Z,0.20
2023-05-19T11:28:14.639Z,0.20
2023-05-19T11:30:44.339Z,0.20
2023-05-19T11:33:13.421Z,0.20
2023-05-19T11:35:42.193Z,0.20
2023-05-19T11:38:13.130Z,0.20
2023-05-19T11:40:42.947Z,0.20
2023-05-19T11:43:11.933Z,0.20
2023-05-19T11:45:40.681Z,0.20
2023-05-19T11:48:17.665Z,0.20
2023-05-19T11:50:46.816Z,0.20
2023-05-19T11:53:20.330Z,0.20
2023-05-19T11:55:49.633Z,0.20
2023-05-19T11:58:18.762Z,0.20
2023-05-19T12:00:47.925Z,0.20
2023-05-19T12:03:17.382Z,0.20
2023-05-19T12:05:49.565Z,0.20
2023-05-19T12:08:19.571Z,0.20
2023-05-19T12:10:50.409Z,0.20
2023-05-19T12:13:21.488Z,0.20
2023-05-19T12:15:51.731Z,0.20
2023-05-19T12:18:20.759Z,0.20
2023-05-19T12:20:50.091Z,0.20
2023-05-19T12:23:19.997Z,0.20
2023-05-19T12:25:48.676Z,0.20
2023-05-19T12:28:17.545Z,0.20
2023-05-19T12:30:49.085Z,0.20
2023-05-19T12:33:17.654Z,0.20
2023-05-19T12:35:57.959Z,0.20
2023-05-19T12:41:48.766Z,0.20
2023-05-19T12:44:17.758Z,0.20
2023-05-19T12:46:53.504Z,0.20
2023-05-19T12:49:31.372Z,0.20
2023-05-19T12:52:20.759Z,0.20
2023-05-19T12:54:50.565Z,0.20
2023-05-19T13:00:58.276Z,0.20
2023-05-19T13:03:43.652Z,0.20
2023-05-19T13:06:20.677Z,0.20
2023-05-19T13:08:58.455Z,0.20
2023-05-19T13:11:28.079Z,0.20
2023-05-19T13:14:08.098Z,0.20
2023-05-19T13:16:38.616Z,0.20
2023-05-19T13:19:06.785Z,0.20
2023-05-19T13:21:36.767Z,0.20
2023-05-19T13:24:05.322Z,0.20
2023-05-19T13:26:35.073Z,0.20
2023-05-19T13:29:03.652Z,0.20
2023-05-19T13:31:34.143Z,0.20
2023-05-19T13:34:02.162Z,0.20
2023-05-19T13:36:30.150Z,0.20
2023-05-19T13:38:58.486Z,0.20
2023-05-19T13:41:26.871Z,0.20
2023-05-19T13:43:58.351Z,0.20
2023-05-19T13:46:33.128Z,0.20
2023-05-19T13:49:11.941Z,0.20
2023-05-19T13:51:43.596Z,0.20
2023-05-19T13:54:11.770Z,0.20
2023-05-19T13:56:40.809Z,0.20
2023-05-19T13:59:10.394Z,0.20
2023-05-19T14:01:38.814Z,0.20
2023-05-19T14:04:07.328Z,0.20
2023-05-19T14:06:35.350Z,0.20
2023-05-19T14:09:03.371Z,0.20
2023-05-19T14:11:31.399Z,0.20
2023-05-19T14:13:59.613Z,0.20
2023-05-19T14:16:29.191Z,0.20
2023-05-19T14:18:57.723Z,0.20
2023-05-19T14:21:25.788Z,0.20
2023-05-19T14:23:54.113Z,0.20
2023-05-19T14:26:22.169Z,0.20
2023-05-19T14:28:51.472Z,0.20
2023-05-19T14:31:19.726Z,0.20
2023-05-19T14:33:49.508Z,0.20
2023-05-19T14:36:33.918Z,0.20
2023-05-19T14:39:05.936Z,0.20
2023-05-19T14:41:43.168Z,0.20
2023-05-19T14:44:17.061Z,0.20
2023-05-19T14:47:07.486Z,0.20
2023-05-19T14:49:38.105Z,0.20
2023-05-19T14:52:08.690Z,0.20
2023-05-19T14:54:55.754Z,0.20
2023-05-19T14:57:27.500Z,0.20
2023-05-19T15:00:00.062Z,0.20
2023-05-19T15:02:30.511Z,0.20
2023-05-19T15:05:01.315Z,0.20
2023-05-19T15:07:29.261Z,0.20
2023-05-19T15:09:57.262Z,0.20
2023-05-19T15:12:25.237Z,0.20
2023-05-19T15:14:53.148Z,0.20
2023-05-19T15:17:21.322Z,0.20
2023-05-19T15:19:49.552Z,0.20
2023-05-19T15:22:19.090Z,0.20
2023-05-19T15:24:47.186Z,0.20
2023-05-19T15:27:15.281Z,0.20
2023-05-19T15:29:43.495Z,0.20
2023-05-19T15:32:11.438Z,0.20
2023-05-19T15:34:39.707Z,0.20
2023-05-19T15:37:07.992Z,0.20
2023-05-19T15:39:37.379Z,0.20
2023-05-19T15:42:05.646Z,0.20
2023-05-19T15:44:33.914Z,0.20
2023-05-19T15:47:02.349Z,0.20
2023-05-19T15:49:30.322Z,0.20
2023-05-19T15:51:58.416Z,0.20
2023-05-19T15:54:26.658Z,0.20
2023-05-19T15:56:56.425Z,0.20
2023-05-19T15:59:25.151Z,0.20
2023-05-19T16:01:53.453Z,0.20
2023-05-19T16:04:22.768Z,0.20
2023-05-19T16:06:50.913Z,0.20
2023-05-19T16:09:20.188Z,0.20
2023-05-19T16:11:48.472Z,0.20
2023-05-19T16:14:17.685Z,0.20
2023-05-19T16:16:45.966Z,0.20
2023-05-19T16:19:14.287Z,0.20
2023-05-19T16:21:42.706Z,0.20
2023-05-19T16:24:10.886Z,0.20
2023-05-19T16:26:39.448Z,0.20
2023-05-19T16:29:07.946Z,0.20
2023-05-19T16:31:37.598Z,0.20
2023-05-19T16:34:05.679Z,0.20
2023-05-19T16:36:35.914Z,0.20
2023-05-19T16:39:04.632Z,0.20
2023-05-19T16:41:35.388Z,0.20
2023-05-19T16:44:05.680Z,0.20
2023-05-19T16:46:34.078Z,0.20
2023-05-19T16:49:04.018Z,0.20
2023-05-19T16:51:31.992Z,0.20
2023-05-19T16:54:00.198Z,0.20
2023-05-19T16:56:28.108Z,0.20
2023-05-19T16:58:56.618Z,0.20
2023-05-19T17:01:25.893Z,0.20
2023-05-19T17:03:55.950Z,0.20
2023-05-19T17:06:25.512Z,0.20
2023-05-19T17:08:54.252Z,0.20
2023-05-19T17:11:22.674Z,0.20
2023-05-19T17:13:51.045Z,0.20
2023-05-19T17:16:19.264Z,0.20
2023-05-19T17:18:48.205Z,0.20
2023-05-19T17:21:17.793Z,0.20
2023-05-19T17:23:50.031Z,0.20
2023-05-19T17:26:20.614Z,0.20
2023-05-19T17:28:51.219Z,0.20
2023-05-19T17:31:19.073Z,0.20
2023-05-19T17:33:47.089Z,0.20
2023-05-19T17:36:16.741Z,0.20
2023-05-19T17:38:44.891Z,0.20
2023-05-19T17:41:16.156Z,0.20
2023-05-19T17:43:45.443Z,0.20
2023-05-19T17:46:13.657Z,0.20
2023-05-19T17:48:42.021Z,0.20
2023-05-19T17:51:10.050Z,0.20
2023-05-19T17:53:38.890Z,0.20
2023-05-19T17:56:09.761Z,0.20
2023-05-19T17:58:41.509Z,0.20
2023-05-19T18:01:12.621Z,0.20
2023-05-19T18:03:41.457Z,0.20
2023-05-19T18:06:09.750Z,0.20
2023-05-19T18:08:42.578Z,0.20
2023-05-19T18:11:13.511Z,0.20
2023-05-19T18:13:44.393Z,0.20
2023-05-19T18:16:13.409Z,0.20
2023-05-19T18:18:43.720Z,0.20
2023-05-19T18:21:17.692Z,0.20
2023-05-19T18:23:46.716Z,0.20
2023-05-19T18:26:14.986Z,0.20
2023-05-19T18:28:44.936Z,0.20
2023-05-19T18:31:19.375Z,0.20
2023-05-19T18:33:48.211Z,0.20
2023-05-19T18:36:17.788Z,0.20
2023-05-19T18:38:47.377Z,0.20
2023-05-19T18:41:15.827Z,0.20
2023-05-19T18:43:45.349Z,0.20
2023-05-19T18:46:14.457Z,0.20
2023-05-19T18:48:43.994Z,0.20
2023-05-19T18:51:14.375Z,0.20
2023-05-19T18:53:42.544Z,0.20
2023-05-19T18:56:12.906Z,0.20
2023-05-19T18:58:41.806Z,0.20
2023-05-19T19:01:12.575Z,0.20
2023-05-19T19:03:43.743Z,0.20
2023-05-19T19:06:15.351Z,0.20
2023-05-19T19:08:45.755Z,0.20
2023-05-19T19:11:13.974Z,0.20
2023-05-19T19:13:43.594Z,0.30
2023-05-19T19:16:13.272Z,0.20
2023-05-19T19:19:09.992Z,0.20
2023-05-19T19:21:39.266Z,0.20
2023-05-19T19:24:08.156Z,0.20
2023-05-19T19:26:51.590Z,0.20
2023-05-19T19:30:01.414Z,0.30
2023-05-19T19:33:15.007Z,0.20
2023-05-19T19:36:10.474Z,0.20
2023-05-19T19:39:03.846Z,0.20
2023-05-19T19:41:33.461Z,0.30
2023-05-19T19:44:01.746Z,0.20
2023-05-19T19:46:36.024Z,0.20
2023-05-19T19:49:04.230Z,0.20
2023-05-19T19:51:34.257Z,0.20
2023-05-19T19:54:02.324Z,0.20
2023-05-19T19:56:30.411Z,0.20
2023-05-19T19:58:59.390Z,0.20
2023-05-19T20:01:28.218Z,0.20
2023-05-19T20:03:58.157Z,0.20
2023-05-19T20:06:26.608Z,0.20
2023-05-19T20:08:57.038Z,0.20
2023-05-19T20:11:26.722Z,0.20
2023-05-19T20:13:55.606Z,0.20
2023-05-19T20:16:25.580Z,0.20
2023-05-19T20:18:57.811Z,0.20
2023-05-19T20:21:30.153Z,0.20
2023-05-19T20:24:02.750Z,0.20
2023-05-19T20:26:32.138Z,0.20
2023-05-19T20:29:02.501Z,0.20
2023-05-19T20:31:38.005Z,0.20
2023-05-19T20:34:29.490Z,0.20
2023-05-19T20:36:57.941Z,0.20
2023-05-19T20:39:56.590Z,0.20
2023-05-19T20:42:31.329Z,0.20
2023-05-19T20:45:01.907Z,0.30
2023-05-19T20:47:31.571Z,0.20
2023-05-19T20:50:03.296Z,0.30
2023-05-19T20:52:34.166Z,0.20
2023-05-19T20:55:32.960Z,0.20
2023-05-19T20:58:01.833Z,0.30
2023-05-19T21:00:32.649Z,0.20
2023-05-19T21:03:00.957Z,0.20
2023-05-19T21:05:29.189Z,0.20
2023-05-19T21:07:59.644Z,0.20
2023-05-19T21:10:29.637Z,0.20
2023-05-19T21:12:58.961Z,0.20
2023-05-19T21:15:27.288Z,0.20
2023-05-19T21:17:56.886Z,0.23
2023-05-19T21:20:26.003Z,0.20
2023-05-19T21:22:55.064Z,0.20
2023-05-19T21:25:23.928Z,0.20
2023-05-19T21:27:56.941Z,0.20
2023-05-19T21:30:25.209Z,0.20
2023-05-19T21:32:53.591Z,0.20
2023-05-19T21:35:21.942Z,0.20
2023-05-19T21:37:50.013Z,0.20
2023-05-19T21:40:18.043Z,0.20
2023-05-19T21:42:46.129Z,0.20
2023-05-19T21:45:16.683Z,0.20
2023-05-19T21:47:45.113Z,0.20
2023-05-19T21:50:17.399Z,0.20
2023-05-19T21:52:45.674Z,0.20
2023-05-19T21:55:15.762Z,0.20
2023-05-19T21:57:43.953Z,0.20
2023-05-19T22:00:14.919Z,0.20
2023-05-19T22:02:44.826Z,0.20
2023-05-19T22:05:13.253Z,0.20
2023-05-19T22:07:41.750Z,0.20
2023-05-19T22:10:13.376Z,0.20
2023-05-19T22:12:41.534Z,0.20
2023-05-19T22:15:11.191Z,0.23
2023-05-19T22:17:39.581Z,0.30
2023-05-19T22:20:12.232Z,0.30
2023-05-19T22:22:46.057Z,0.20
2023-05-19T22:25:14.211Z,0.20
2023-05-19T22:27:42.235Z,0.30
2023-05-19T22:30:10.539Z,0.37
2023-05-19T22:32:38.841Z,0.20
2023-05-19T22:35:08.366Z,0.30
2023-05-19T22:37:39.249Z,0.20
2023-05-19T22:40:08.992Z,0.20
2023-05-19T22:42:37.354Z,0.30
2023-05-19T22:45:06.792Z,0.30
2023-05-19T22:47:34.798Z,0.20
2023-05-19T22:50:02.998Z,0.20
2023-05-19T22:52:31.906Z,0.20
2023-05-19T22:55:06.013Z,0.30
2023-05-19T22:57:34.191Z,0.20
2023-05-19T23:00:02.332Z,0.30
2023-05-19T23:02:31.496Z,0.20
2023-05-19T23:04:59.635Z,0.30
2023-05-19T23:07:27.790Z,0.20
2023-05-19T23:09:56.069Z,0.20
2023-05-19T23:12:25.529Z,0.20
2023-05-19T23:14:54.028Z,0.30
2023-05-19T23:17:23.816Z,0.30
2023-05-19T23:19:51.800Z,0.20
2023-05-19T23:22:19.861Z,0.20
2023-05-19T23:24:47.902Z,0.20
2023-05-19T23:27:17.391Z,0.20
2023-05-19T23:29:50.178Z,0.30
2023-05-19T23:32:18.390Z,0.20
2023-05-19T23:34:48.405Z,0.30
2023-05-19T23:37:16.405Z,0.20
2023-05-19T23:39:44.503Z,0.20
2023-05-19T23:42:13.172Z,0.20
2023-05-19T23:44:41.320Z,0.20
2023-05-19T23:47:10.840Z,0.30
2023-05-19T23:49:39.888Z,0.30
2023-05-19T23:52:08.052Z,0.20
2023-05-19T23:54:36.053Z,0.30
2023-05-19T23:57:06.564Z,0.20
2023-05-19T23:59:34.641Z,0.20
